Time;durP1;ratioP1;P1;durP2;ratioP2;P2;SDS_P1;SDS_P2;PMS_P1;PMS_P2;Temp;Humidity;BMP_temperature;BMP_pressure;BME280_temperature;BME280_humidity;BME280_pressure;Samples;Min_cycle;Max_cycle;Signal;HPM_P1;HPM_P2
2021/10/27 00:01:07;;;;;;;;;;;10.00;99.90;;;;;;5116150;28;19969;-71
2021/10/27 00:03:34;;;;;;;;;;;10.00;99.90;;;;;;5115340;28;19969;-71
2021/10/27 00:06:00;;;;;;;;;;;10.00;99.90;;;;;;5116246;28;19923;-71
2021/10/27 00:08:27;;;;;;;;;;;10.10;99.90;;;;;;5115868;28;19969;-70
2021/10/27 00:10:53;;;;;;;;;;;10.20;99.90;;;;;;5115887;28;19928;-72
2021/10/27 00:13:21;;;;;;;;;;;10.10;99.90;;;;;;5115215;28;19924;-71
2021/10/27 00:15:47;;;;;;;;;;;10.10;99.90;;;;;;5115681;28;19924;-70
2021/10/27 00:18:14;;;;;;;;;;;10.10;99.90;;;;;;5115637;28;19969;-71
2021/10/27 00:20:40;;;;;;;;;;;10.10;99.90;;;;;;5115501;28;20383;-71
2021/10/27 00:23:07;;;;;;;;;;;10.10;99.90;;;;;;5115316;28;19969;-70
2021/10/27 00:25:33;;;;;;;;;;;10.20;99.90;;;;;;5115607;28;19924;-72
2021/10/27 00:28:00;;;;;;;;;;;10.10;99.90;;;;;;5115523;28;19924;-71
2021/10/27 00:30:28;;;;;;;;;;;10.20;99.90;;;;;;5115540;28;19923;-72
2021/10/27 00:32:54;;;;;;;;;;;10.20;99.90;;;;;;5115308;28;20278;-71
2021/10/27 00:35:21;;;;;;;;;;;10.20;99.90;;;;;;5114854;28;19924;-70
2021/10/27 00:37:47;;;;;;;;;;;10.10;99.90;;;;;;5115498;28;19977;-72
2021/10/27 00:40:14;;;;;;;;;;;10.20;99.90;;;;;;5115261;28;19923;-71
2021/10/27 00:42:40;;;;;;;;;;;10.20;99.90;;;;;;5115365;28;20333;-70
2021/10/27 00:45:08;;;;;;;;;;;10.20;99.90;;;;;;5114630;28;19968;-72
2021/10/27 00:47:35;;;;;;;;;;;10.20;99.90;;;;;;5115333;28;19924;-73
2021/10/27 00:50:02;;;;;;;;;;;10.20;99.90;;;;;;5115136;28;19932;-73
2021/10/27 00:52:29;;;;;;;;;;;10.20;99.90;;;;;;5114932;28;20390;-72
2021/10/27 00:54:57;;;;;;;;;;;10.20;99.90;;;;;;5114554;28;19928;-72
2021/10/27 00:57:24;;;;;;;;;;;10.20;99.90;;;;;;5114831;28;19969;-71
2021/10/27 00:59:51;;;;;;;;;;;10.20;99.90;;;;;;5114883;28;19924;-72
2021/10/27 01:02:18;;;;;;;;;;;10.20;99.90;;;;;;5114611;28;20387;-71
2021/10/27 01:04:47;;;;;;;;;;;10.20;99.90;;;;;;5114352;28;19924;-71
2021/10/27 01:07:14;;;;;;;;;;;10.10;99.90;;;;;;5114764;28;19967;-70
2021/10/27 01:09:41;;;;;;;;;;;10.10;99.90;;;;;;5114601;28;20307;-71
2021/10/27 01:12:08;;;;;;;;;;;10.10;99.90;;;;;;5114632;28;19947;-71
2021/10/27 01:14:35;;;;;;;;;;;10.00;99.90;;;;;;5114145;28;19923;-72
2021/10/27 01:17:02;;;;;;;;;;;10.00;99.90;;;;;;5114668;28;20034;-70
2021/10/27 01:19:31;;;;;;;;;;;10.00;99.90;;;;;;5114493;28;19924;-70
2021/10/27 01:21:59;;;;;;;;;;;10.00;99.90;;;;;;5114525;28;19931;-70
2021/10/27 01:24:26;;;;;;;;;;;9.90;99.90;;;;;;5113906;28;19927;-70
2021/10/27 01:26:52;;;;;;;;;;;9.90;99.90;;;;;;5114455;28;19927;-71
2021/10/27 01:29:19;;;;;;;;;;;9.90;99.90;;;;;;5114480;28;19939;-72
2021/10/27 01:31:45;;;;;;;;;;;9.90;99.90;;;;;;5114531;28;19924;-71
2021/10/27 01:34:12;;;;;;;;;;;9.90;99.90;;;;;;5113655;28;19923;-73
2021/10/27 01:36:38;;;;;;;;;;;9.90;99.90;;;;;;5114544;28;19930;-71
2021/10/27 01:39:07;;;;;;;;;;;10.00;99.90;;;;;;5114125;28;19924;-73
2021/10/27 01:41:34;;;;;;;;;;;10.00;99.90;;;;;;5114582;28;20032;-71
2021/10/27 01:44:00;;;;;;;;;;;10.00;99.90;;;;;;5113802;28;19993;-72
2021/10/27 01:46:27;;;;;;;;;;;10.00;99.90;;;;;;5114114;28;19931;-73
2021/10/27 01:48:53;;;;;;;;;;;10.00;99.90;;;;;;5114064;28;19984;-75
2021/10/27 01:51:20;;;;;;;;;;;10.00;99.90;;;;;;5113886;28;19924;-72
2021/10/27 01:53:56;;;;;;;;;;;10.00;99.90;;;;;;5113249;28;20328;-72
2021/10/27 01:56:25;;;;;;;;;;;10.00;99.90;;;;;;5112686;28;19949;-70
2021/10/27 01:58:52;;;;;;;;;;;10.00;99.90;;;;;;5113876;28;19931;-70
2021/10/27 02:01:19;;;;;;;;;;;9.90;99.90;;;;;;5114116;28;19923;-70
2021/10/27 02:03:45;;;;;;;;;;;9.90;99.90;;;;;;5113016;28;19924;-71
2021/10/27 02:06:12;;;;;;;;;;;9.90;99.90;;;;;;5113622;28;19931;-70
2021/10/27 02:08:38;;;;;;;;;;;9.90;99.90;;;;;;5113436;28;19924;-70
2021/10/27 02:11:05;;;;;;;;;;;9.90;99.90;;;;;;5113433;28;20445;-71
2021/10/27 02:13:33;;;;;;;;;;;9.90;99.90;;;;;;5112639;28;19924;-71
2021/10/27 02:15:59;;;;;;;;;;;9.80;99.90;;;;;;5113498;28;19923;-71
2021/10/27 02:18:26;;;;;;;;;;;9.90;99.90;;;;;;5113302;28;19924;-70
2021/10/27 02:20:52;;;;;;;;;;;9.90;99.90;;;;;;5113360;28;20341;-70
2021/10/27 02:23:19;;;;;;;;;;;9.80;99.90;;;;;;5112739;28;19969;-72
2021/10/27 02:25:46;;;;;;;;;;;9.90;99.90;;;;;;5113584;28;19976;-72
2021/10/27 02:28:12;;;;;;;;;;;9.90;99.90;;;;;;5113330;28;19949;-72
2021/10/27 02:30:41;;;;;;;;;;;9.90;99.90;;;;;;5113240;28;20337;-74
2021/10/27 02:33:08;;;;;;;;;;;9.90;99.90;;;;;;5112634;28;19923;-73
2021/10/27 02:35:34;;;;;;;;;;;9.90;99.90;;;;;;5112958;28;20508;-73
2021/10/27 02:38:01;;;;;;;;;;;9.90;99.90;;;;;;5113361;28;19924;-72
2021/10/27 02:40:27;;;;;;;;;;;9.90;99.90;;;;;;5112876;28;19928;-70
2021/10/27 02:42:54;;;;;;;;;;;9.90;99.90;;;;;;5113119;28;19924;-71
2021/10/27 02:45:20;;;;;;;;;;;10.00;99.90;;;;;;5112572;28;19924;-70
2021/10/27 02:47:48;;;;;;;;;;;10.00;99.90;;;;;;5113173;28;20307;-71
2021/10/27 02:50:16;;;;;;;;;;;9.90;99.90;;;;;;5112721;28;19977;-71
2021/10/27 02:52:44;;;;;;;;;;;9.90;99.90;;;;;;5113067;28;19969;-72
2021/10/27 02:55:11;;;;;;;;;;;10.00;99.90;;;;;;5112613;28;20018;-74
2021/10/27 02:57:38;;;;;;;;;;;10.00;99.90;;;;;;5112777;28;19928;-73
2021/10/27 03:00:05;;;;;;;;;;;10.00;99.90;;;;;;5112794;28;20285;-73
2021/10/27 03:02:31;;;;;;;;;;;10.00;99.90;;;;;;5113049;28;19923;-72
2021/10/27 03:04:59;;;;;;;;;;;10.00;99.90;;;;;;5111978;28;19928;-70
2021/10/27 03:07:25;;;;;;;;;;;10.00;99.90;;;;;;5113020;28;19977;-72
2021/10/27 03:09:52;;;;;;;;;;;10.00;99.90;;;;;;5112744;28;19977;-74
2021/10/27 03:12:19;;;;;;;;;;;10.00;99.90;;;;;;5112715;28;19977;-73
2021/10/27 03:14:45;;;;;;;;;;;10.00;99.90;;;;;;5112106;28;19924;-72
2021/10/27 03:17:16;;;;;;;;;;;10.00;99.90;;;;;;5112411;28;19923;-72
2021/10/27 03:19:42;;;;;;;;;;;10.00;99.90;;;;;;5112782;28;19985;-72
2021/10/27 03:22:10;;;;;;;;;;;10.10;99.90;;;;;;5112724;28;19965;-72
2021/10/27 03:24:37;;;;;;;;;;;10.10;99.90;;;;;;5112124;28;20361;-72
2021/10/27 03:27:03;;;;;;;;;;;10.10;99.90;;;;;;5115381;28;19924;-72
2021/10/27 03:29:30;;;;;;;;;;;10.10;99.90;;;;;;5116466;28;19977;-74
2021/10/27 03:31:56;;;;;;;;;;;10.10;99.90;;;;;;5116510;28;19928;-73
2021/10/27 03:34:23;;;;;;;;;;;10.10;99.90;;;;;;5116101;28;20371;-73
2021/10/27 03:36:49;;;;;;;;;;;10.10;99.90;;;;;;5116603;28;19980;-72
2021/10/27 03:39:17;;;;;;;;;;;10.10;99.90;;;;;;5116667;28;19924;-72
2021/10/27 03:41:44;;;;;;;;;;;10.10;99.90;;;;;;5116789;27;19924;-72
2021/10/27 03:44:11;;;;;;;;;;;10.20;99.90;;;;;;5116282;28;20387;-73
2021/10/27 03:46:37;;;;;;;;;;;10.20;99.90;;;;;;5117181;28;20032;-74
2021/10/27 03:49:04;;;;;;;;;;;10.20;99.90;;;;;;5116858;28;19924;-74
2021/10/27 03:51:31;;;;;;;;;;;10.20;99.90;;;;;;5116974;28;19930;-72
2021/10/27 03:53:57;;;;;;;;;;;10.10;99.90;;;;;;5115960;28;20022;-71
2021/10/27 03:56:25;;;;;;;;;;;10.20;99.90;;;;;;5116055;28;19928;-71
2021/10/27 03:58:51;;;;;;;;;;;10.20;99.90;;;;;;5116050;28;19969;-70
2021/10/27 04:01:18;;;;;;;;;;;10.20;99.90;;;;;;5116386;28;19923;-69
2021/10/27 04:03:44;;;;;;;;;;;10.20;99.90;;;;;;5115559;28;19977;-70
2021/10/27 04:06:11;;;;;;;;;;;10.20;99.90;;;;;;5115993;28;19985;-75
2021/10/27 04:08:37;;;;;;;;;;;10.20;99.90;;;;;;5115991;28;19977;-73
2021/10/27 04:11:04;;;;;;;;;;;10.30;99.90;;;;;;5115892;27;19977;-72
2021/10/27 04:13:33;;;;;;;;;;;10.30;99.90;;;;;;5115155;28;19977;-70
2021/10/27 04:15:59;;;;;;;;;;;10.30;99.90;;;;;;5115839;28;19923;-71
2021/10/27 04:18:26;;;;;;;;;;;10.30;99.90;;;;;;5115559;28;19923;-72
2021/10/27 04:20:52;;;;;;;;;;;10.30;99.90;;;;;;5115755;28;19969;-71
2021/10/27 04:23:19;;;;;;;;;;;10.30;99.90;;;;;;5115482;28;19923;-69
2021/10/27 04:25:45;;;;;;;;;;;10.30;99.90;;;;;;5115565;28;19924;-71
2021/10/27 04:28:12;;;;;;;;;;;10.30;99.90;;;;;;5115406;28;19977;-71
2021/10/27 04:30:40;;;;;;;;;;;10.30;99.90;;;;;;5115814;28;19928;-72
2021/10/27 04:33:14;;;;;;;;;;;10.30;99.90;;;;;;5115384;28;20306;-73
2021/10/27 04:35:40;;;;;;;;;;;10.30;99.90;;;;;;5115466;28;20044;-73
2021/10/27 04:38:07;;;;;;;;;;;10.30;99.90;;;;;;5114876;28;19931;-71
2021/10/27 04:40:33;;;;;;;;;;;10.30;99.90;;;;;;5115152;28;19923;-72
2021/10/27 04:43:00;;;;;;;;;;;10.30;99.90;;;;;;5115310;28;19946;-71
2021/10/27 04:45:28;;;;;;;;;;;10.40;99.90;;;;;;5114837;28;19923;-71
2021/10/27 04:47:56;;;;;;;;;;;10.40;99.90;;;;;;5115342;28;19924;-69
2021/10/27 04:50:22;;;;;;;;;;;10.40;99.90;;;;;;5115081;28;19924;-70
2021/10/27 04:52:49;;;;;;;;;;;10.40;99.90;;;;;;5115060;28;19981;-70
2021/10/27 04:55:15;;;;;;;;;;;10.30;99.90;;;;;;5114490;28;20036;-70
2021/10/27 04:57:42;;;;;;;;;;;10.30;99.90;;;;;;5115037;27;19977;-72
2021/10/27 05:00:09;;;;;;;;;;;10.40;99.90;;;;;;5114931;28;20292;-74
2021/10/27 05:02:36;;;;;;;;;;;10.40;99.90;;;;;;5114969;28;19924;-72
2021/10/27 05:05:04;;;;;;;;;;;10.40;99.90;;;;;;5114247;28;20307;-73
2021/10/27 05:07:30;;;;;;;;;;;10.40;99.90;;;;;;5115205;28;20329;-71
2021/10/27 05:09:57;;;;;;;;;;;10.40;99.90;;;;;;5114559;28;19923;-72
2021/10/27 05:12:24;;;;;;;;;;;10.40;99.90;;;;;;5114747;28;19924;-75
2021/10/27 05:14:51;;;;;;;;;;;10.40;99.90;;;;;;5114593;28;19924;-73
2021/10/27 05:17:18;;;;;;;;;;;10.50;99.90;;;;;;5114541;28;19977;-74
2021/10/27 05:19:45;;;;;;;;;;;10.40;99.90;;;;;;5114286;28;19985;-70
2021/10/27 05:22:13;;;;;;;;;;;10.40;99.90;;;;;;5115333;28;19968;-70
2021/10/27 05:24:40;;;;;;;;;;;10.50;99.90;;;;;;5114331;28;19924;-73
2021/10/27 05:27:07;;;;;;;;;;;10.50;99.90;;;;;;5114499;28;19969;-73
2021/10/27 05:29:33;;;;;;;;;;;10.50;99.90;;;;;;5114893;28;19993;-73
2021/10/27 05:32:00;;;;;;;;;;;10.50;99.90;;;;;;5114179;28;19924;-73
2021/10/27 05:34:27;;;;;;;;;;;10.40;99.90;;;;;;5113908;28;19936;-71
2021/10/27 05:36:53;;;;;;;;;;;10.40;99.90;;;;;;5113816;28;19923;-69
2021/10/27 05:39:21;;;;;;;;;;;10.50;99.90;;;;;;5114141;28;19931;-72
2021/10/27 05:41:48;;;;;;;;;;;10.40;99.90;;;;;;5114201;28;19969;-73
2021/10/27 05:44:16;;;;;;;;;;;10.40;99.90;;;;;;5113654;28;20014;-73
2021/10/27 05:46:44;;;;;;;;;;;10.40;99.90;;;;;;5114097;28;19959;-73
2021/10/27 05:49:17;;;;;;;;;;;10.40;99.90;;;;;;5113035;28;19959;-75
2021/10/27 05:51:46;;;;;;;;;;;10.40;99.90;;;;;;5114157;28;19930;-73
2021/10/27 05:56:58;;;;;;;;;;;10.50;99.90;;;;;;5113762;28;20310;-72
2021/10/27 05:59:25;;;;;;;;;;;10.50;99.90;;;;;;5113606;28;19924;-69
2021/10/27 06:01:51;;;;;;;;;;;10.40;99.90;;;;;;5113462;27;20372;-69
2021/10/27 06:04:18;;;;;;;;;;;10.50;99.90;;;;;;5113085;28;19930;-69
2021/10/27 06:06:45;;;;;;;;;;;10.40;99.90;;;;;;5113645;28;19943;-71
2021/10/27 06:09:11;;;;;;;;;;;10.40;99.90;;;;;;5113472;28;19923;-71
2021/10/27 06:11:38;;;;;;;;;;;10.40;99.90;;;;;;5113538;28;20030;-71
2021/10/27 06:14:06;;;;;;;;;;;10.40;99.90;;;;;;5112829;28;19959;-70
2021/10/27 06:16:33;;;;;;;;;;;10.50;99.90;;;;;;5113522;28;19924;-70
2021/10/27 06:18:59;;;;;;;;;;;10.40;99.90;;;;;;5113325;28;20424;-70
2021/10/27 06:21:26;;;;;;;;;;;10.40;99.90;;;;;;5113481;28;19923;-70
2021/10/27 06:23:53;;;;;;;;;;;10.40;99.90;;;;;;5112986;28;20068;-69
2021/10/27 06:26:19;;;;;;;;;;;10.50;99.90;;;;;;5113141;28;19924;-70
2021/10/27 06:28:56;;;;;;;;;;;10.50;99.90;;;;;;5112908;28;20450;-69
2021/10/27 06:31:30;;;;;;;;;;;10.50;99.90;;;;;;5113400;28;19924;-69
2021/10/27 06:34:01;;;;;;;;;;;10.50;99.90;;;;;;5112686;28;20026;-70
2021/10/27 06:36:33;;;;;;;;;;;10.50;99.90;;;;;;5113405;28;19930;-71
2021/10/27 06:39:23;;;;;;;;;;;10.50;99.90;;;;;;5113193;28;19981;-75
2021/10/27 06:47:21;;;;;;;;;;;10.50;99.90;;;;;;5113301;28;20024;-74
2021/10/27 06:49:48;;;;;;;;;;;10.50;99.90;;;;;;5113224;28;19924;-74
2021/10/27 06:52:14;;;;;;;;;;;10.50;99.90;;;;;;5112964;28;19930;-72
2021/10/27 06:54:41;;;;;;;;;;;10.60;99.90;;;;;;5112579;28;19924;-73
2021/10/27 06:57:07;;;;;;;;;;;10.60;99.90;;;;;;5112753;28;20000;-74
2021/10/27 06:59:36;;;;;;;;;;;10.60;99.90;;;;;;5112339;28;19931;-74
2021/10/27 07:02:33;;;;;;;;;;;10.60;99.90;;;;;;5112591;28;19924;-71
2021/10/27 07:05:11;;;;;;;;;;;10.70;99.90;;;;;;5112049;28;19980;-71
2021/10/27 07:15:54;;;;;;;;;;;10.70;99.90;;;;;;5112572;28;19935;-71
2021/10/27 07:18:21;;;;;;;;;;;10.80;99.90;;;;;;5112450;28;20012;-73
2021/10/27 07:20:49;;;;;;;;;;;10.80;99.90;;;;;;5112412;28;19924;-69
2021/10/27 07:23:15;;;;;;;;;;;10.80;99.90;;;;;;5111876;28;19924;-75
2021/10/27 07:25:42;;;;;;;;;;;10.80;99.90;;;;;;5113147;28;19977;-75
2021/10/27 07:28:09;;;;;;;;;;;10.80;99.90;;;;;;5112654;28;20391;-76
2021/10/27 07:30:35;;;;;;;;;;;10.80;99.90;;;;;;5112372;28;19923;-73
2021/10/27 07:33:02;;;;;;;;;;;10.90;99.90;;;;;;5112493;28;19928;-76
2021/10/27 07:35:36;;;;;;;;;;;10.90;99.90;;;;;;5111759;28;20300;-75
2021/10/27 07:40:48;;;;;;;;;;;11.00;99.90;;;;;;5112567;28;20453;-72
2021/10/27 07:43:17;;;;;;;;;;;11.00;99.90;;;;;;5111706;28;19930;-72
2021/10/27 07:45:44;;;;;;;;;;;11.10;99.90;;;;;;5112567;28;19962;-72
2021/10/27 07:48:11;;;;;;;;;;;11.10;99.90;;;;;;5112077;28;19943;-71
2021/10/27 07:50:38;;;;;;;;;;;11.10;99.90;;;;;;5112286;28;19986;-71
2021/10/27 07:53:07;;;;;;;;;;;11.10;99.90;;;;;;5112240;28;20014;-74
2021/10/27 07:55:35;;;;;;;;;;;11.20;99.90;;;;;;5112242;28;19977;-75
2021/10/27 07:58:02;;;;;;;;;;;11.20;99.90;;;;;;5112184;28;20235;-72
2021/10/27 08:00:29;;;;;;;;;;;11.30;99.90;;;;;;5112101;28;20014;-71
2021/10/27 08:03:00;;;;;;;;;;;11.30;99.90;;;;;;5112082;28;19923;-74
2021/10/27 08:05:29;;;;;;;;;;;11.40;99.90;;;;;;5111468;28;19924;-72
2021/10/27 08:07:57;;;;;;;;;;;11.40;99.90;;;;;;5112089;28;19973;-71
2021/10/27 08:10:26;;;;;;;;;;;11.50;99.90;;;;;;5112010;28;19924;-71
2021/10/27 08:12:53;;;;;;;;;;;11.50;99.90;;;;;;5114156;28;19924;-73
2021/10/27 08:15:19;;;;;;;;;;;11.60;99.90;;;;;;5115199;28;19931;-71
2021/10/27 08:17:46;;;;;;;;;;;11.80;99.90;;;;;;5115747;28;19984;-72
2021/10/27 08:20:13;;;;;;;;;;;11.70;99.90;;;;;;5115674;28;19924;-70
2021/10/27 08:22:42;;;;;;;;;;;11.70;99.90;;;;;;5115825;28;19976;-74
2021/10/27 08:25:17;;;;;;;;;;;11.70;99.90;;;;;;5115027;28;19985;-71
2021/10/27 08:27:46;;;;;;;;;;;11.80;99.90;;;;;;5116632;28;19928;-73
2021/10/27 08:30:14;;;;;;;;;;;11.80;99.90;;;;;;5115628;28;19939;-72
2021/10/27 08:32:49;;;;;;;;;;;11.80;99.90;;;;;;5119158;27;19946;-78
2021/10/27 08:35:16;;;;;;;;;;;11.80;99.90;;;;;;5117404;28;19968;-77
2021/10/27 08:37:43;;;;;;;;;;;11.90;99.90;;;;;;5121247;28;20363;-77
2021/10/27 08:40:10;;;;;;;;;;;12.00;99.90;;;;;;5119913;28;20000;-80
2021/10/27 08:42:37;;;;;;;;;;;12.10;99.90;;;;;;5121478;28;20221;-76
2021/10/27 08:45:05;;;;;;;;;;;12.10;99.90;;;;;;5116027;27;19927;-75
2021/10/27 08:47:33;;;;;;;;;;;12.30;99.90;;;;;;5117033;28;19927;-74
2021/10/27 08:50:00;;;;;;;;;;;12.20;99.90;;;;;;5116004;28;20317;-73
2021/10/27 08:52:26;;;;;;;;;;;12.30;99.90;;;;;;5116798;28;19931;-74
2021/10/27 08:54:54;;;;;;;;;;;12.30;99.90;;;;;;5115060;28;20374;-79
2021/10/27 08:57:21;;;;;;;;;;;12.50;99.90;;;;;;5117167;28;19977;-77
2021/10/27 08:59:54;;;;;;;;;;;12.60;99.90;;;;;;5118174;28;19930;-77
2021/10/27 09:02:39;;;;;;;;;;;12.80;99.90;;;;;;5116060;28;20299;-74
2021/10/27 09:05:18;;;;;;;;;;;13.00;99.90;;;;;;5115434;28;19923;-71
2021/10/27 09:08:05;;;;;;;;;;;13.10;99.90;;;;;;5114793;28;19927;-72
2021/10/27 09:14:23;;;;;;;;;;;13.10;99.90;;;;;;5114687;28;19928;-72
2021/10/27 09:16:42;;;;;;;;;;;13.80;99.90;;;;;;5115214;28;20291;-75
2021/10/27 09:36:26;;;;;;;;;;;16.60;99.90;;;;;;5070936;28;19924;-74
2021/10/27 09:45:08;;;;;;;;;;;15.10;99.90;;;;;;5108567;28;20023;-73
2021/10/27 09:55:58;;;;;;;;;;;14.80;99.90;;;;;;5114084;28;20020;-77
2021/10/27 10:04:14;;;;;;;;;;;15.10;99.90;;;;;;5113252;28;20323;-74
2021/10/27 10:06:43;;;;;;;;;;;15.20;99.90;;;;;;5113559;28;20293;-75
2021/10/27 10:09:11;;;;;;;;;;;15.60;99.90;;;;;;5113677;27;19931;-74
2021/10/27 10:11:38;;;;;;;;;;;16.30;99.90;;;;;;5113559;28;19952;-74
2021/10/27 10:14:06;;;;;;;;;;;16.50;99.90;;;;;;5112855;28;20237;-74
2021/10/27 10:16:36;;;;;;;;;;;16.50;99.90;;;;;;5113426;28;20352;-75
2021/10/27 10:19:06;;;;;;;;;;;16.20;99.90;;;;;;5113241;28;19927;-75
2021/10/27 10:21:35;;;;;;;;;;;15.70;99.90;;;;;;5113070;28;20379;-75
2021/10/27 10:24:23;;;;;;;;;;;15.40;99.90;;;;;;5113105;28;19969;-75
2021/10/27 10:26:51;;;;;;;;;;;15.10;99.90;;;;;;5113462;28;19928;-74
2021/10/27 10:29:33;;;;;;;;;;;14.70;99.90;;;;;;5113106;28;19928;-74
2021/10/27 10:32:21;;;;;;;;;;;14.60;99.90;;;;;;5112845;28;19931;-74
2021/10/27 10:34:51;;;;;;;;;;;14.50;99.90;;;;;;5111991;28;20032;-73
2021/10/27 10:37:37;;;;;;;;;;;14.30;99.90;;;;;;5112820;28;20406;-74
2021/10/27 10:40:42;;;;;;;;;;;14.20;99.90;;;;;;5112678;28;20413;-73
2021/10/27 10:43:16;;;;;;;;;;;14.20;99.90;;;;;;5112552;28;20394;-73
2021/10/27 10:45:50;;;;;;;;;;;14.10;99.90;;;;;;5113061;28;20050;-73
2021/10/27 10:57:19;;;;;;;;;;;14.10;99.90;;;;;;5113263;28;19931;-72
2021/10/27 11:00:33;;;;;;;;;;;14.10;99.90;;;;;;5112427;28;19971;-74
2021/10/27 11:03:42;;;;;;;;;;;14.20;99.90;;;;;;5112752;28;19923;-73
2021/10/27 11:26:09;;;;;;;;;;;14.00;99.90;;;;;;5075867;28;19927;-71
2021/10/27 11:39:51;;;;;;;;;;;14.40;99.90;;;;;;5112435;28;20026;-73
2021/10/27 11:42:34;;;;;;;;;;;14.30;99.90;;;;;;5113005;28;19971;-75
2021/10/27 11:45:12;;;;;;;;;;;14.30;99.90;;;;;;5112310;28;20027;-71
2021/10/27 11:47:39;;;;;;;;;;;14.30;99.90;;;;;;5114361;28;20379;-73
2021/10/27 11:50:07;;;;;;;;;;;14.30;99.90;;;;;;5116829;28;20350;-71
2021/10/27 11:52:36;;;;;;;;;;;14.20;99.90;;;;;;5116286;28;19927;-72
2021/10/27 11:55:04;;;;;;;;;;;14.00;99.90;;;;;;5115491;28;20024;-70
2021/10/27 11:57:32;;;;;;;;;;;14.10;99.90;;;;;;5116415;28;19969;-77
2021/10/27 12:00:01;;;;;;;;;;;14.20;99.90;;;;;;5116063;28;19927;-76
2021/10/27 12:02:46;;;;;;;;;;;14.20;99.90;;;;;;5115935;28;20049;-75
2021/10/27 12:05:26;;;;;;;;;;;14.00;99.90;;;;;;5115518;28;19974;-77
2021/10/27 12:08:17;;;;;;;;;;;14.10;99.90;;;;;;5116530;28;19934;-77
2021/10/27 12:10:57;;;;;;;;;;;14.00;99.90;;;;;;5115678;28;19982;-74
2021/10/27 12:13:48;;;;;;;;;;;14.00;99.90;;;;;;5115477;28;19983;-75
2021/10/27 12:16:34;;;;;;;;;;;13.90;99.90;;;;;;5115712;28;19970;-75
2021/10/27 12:19:02;;;;;;;;;;;13.80;99.90;;;;;;5115304;28;20455;-71
2021/10/27 12:21:29;;;;;;;;;;;13.90;99.90;;;;;;5115728;28;20019;-71
2021/10/27 12:23:56;;;;;;;;;;;14.00;99.90;;;;;;5115435;28;19992;-72
2021/10/27 12:26:24;;;;;;;;;;;13.90;99.90;;;;;;5115858;28;19931;-74
2021/10/27 12:29:05;;;;;;;;;;;13.90;99.90;;;;;;5115640;28;19950;-72
2021/10/27 12:31:32;;;;;;;;;;;13.90;99.90;;;;;;5115484;28;19963;-72
2021/10/27 12:33:59;;;;;;;;;;;13.80;99.90;;;;;;5115094;28;19924;-73
2021/10/27 12:36:28;;;;;;;;;;;13.80;99.90;;;;;;5115515;28;19923;-72
2021/10/27 12:39:05;;;;;;;;;;;13.80;99.90;;;;;;5115503;28;19923;-72
2021/10/27 12:41:32;;;;;;;;;;;13.90;99.90;;;;;;5115144;28;19924;-73
2021/10/27 12:43:58;;;;;;;;;;;14.00;99.90;;;;;;5114575;28;19931;-73
2021/10/27 12:46:26;;;;;;;;;;;13.90;99.90;;;;;;5115096;28;19977;-72
2021/10/27 12:48:53;;;;;;;;;;;13.90;99.90;;;;;;5115196;28;19923;-72
2021/10/27 12:51:29;;;;;;;;;;;13.90;99.90;;;;;;5114998;28;20452;-71
2021/10/27 12:54:03;;;;;;;;;;;13.90;99.90;;;;;;5114332;28;19924;-72
2021/10/27 12:56:32;;;;;;;;;;;13.90;99.90;;;;;;5114701;28;19924;-72
2021/10/27 12:59:02;;;;;;;;;;;13.90;99.90;;;;;;5114566;28;19924;-72
2021/10/27 13:01:33;;;;;;;;;;;13.80;99.90;;;;;;5114824;28;19924;-71
2021/10/27 13:04:14;;;;;;;;;;;13.90;99.90;;;;;;5114184;28;19962;-72
2021/10/27 13:06:51;;;;;;;;;;;13.80;99.90;;;;;;5114738;28;19927;-71
2021/10/27 13:20:35;;;;;;;;;;;13.70;99.90;;;;;;5114391;28;19930;-73
2021/10/27 13:23:14;;;;;;;;;;;13.70;99.90;;;;;;5114400;28;19923;-73
2021/10/27 13:31:11;;;;;;;;;;;13.60;99.90;;;;;;5114364;28;19930;-70
2021/10/27 13:33:39;;;;;;;;;;;13.50;99.90;;;;;;5113524;28;19927;-71
2021/10/27 13:36:06;;;;;;;;;;;13.50;99.90;;;;;;5113919;28;20030;-70
2021/10/27 13:38:35;;;;;;;;;;;13.50;99.90;;;;;;5114084;28;19927;-71
2021/10/27 13:41:03;;;;;;;;;;;13.50;99.90;;;;;;5113963;28;19924;-71
2021/10/27 13:43:32;;;;;;;;;;;13.50;99.90;;;;;;5113434;28;20276;-70
2021/10/27 13:46:14;;;;;;;;;;;13.50;99.90;;;;;;5113930;28;20341;-70
2021/10/27 13:49:03;;;;;;;;;;;13.40;99.90;;;;;;5113476;28;19927;-71
2021/10/27 14:07:58;;;;;;;;;;;13.50;99.90;;;;;;5114082;28;19931;-72
2021/10/27 14:10:33;;;;;;;;;;;13.40;99.90;;;;;;5112887;28;19978;-74
2021/10/27 14:13:09;;;;;;;;;;;13.40;99.90;;;;;;5113817;28;19927;-73
2021/10/27 14:15:53;;;;;;;;;;;13.40;99.90;;;;;;5113453;28;19931;-72
2021/10/27 14:18:45;;;;;;;;;;;13.40;99.90;;;;;;5113283;28;19971;-73
2021/10/27 14:40:59;;;;;;;;;;;13.40;99.90;;;;;;5112760;28;20291;-73
2021/10/27 15:21:49;;;;;;;;;;;13.30;99.90;;;;;;5114815;28;20312;-76
2021/10/27 15:24:34;;;;;;;;;;;13.30;99.90;;;;;;5116420;28;19924;-73
2021/10/27 15:30:09;;;;;;;;;;;13.30;99.90;;;;;;5116991;28;19931;-76
2021/10/27 15:32:49;;;;;;;;;;;13.20;99.90;;;;;;5117425;28;19924;-80
2021/10/27 15:40:52;;;;;;;;;;;13.30;99.90;;;;;;5117895;28;19931;-75
2021/10/27 15:51:35;;;;;;;;;;;13.20;99.90;;;;;;5116678;28;19935;-76
2021/10/27 15:54:03;;;;;;;;;;;13.20;99.90;;;;;;5117042;28;20338;-77
2021/10/27 15:56:30;;;;;;;;;;;13.30;99.90;;;;;;5116899;28;19930;-80
2021/10/27 15:58:58;;;;;;;;;;;13.20;99.90;;;;;;5116468;28;19947;-74
2021/10/27 16:01:24;;;;;;;;;;;13.20;99.90;;;;;;5115749;28;19927;-74
2021/10/27 16:03:51;;;;;;;;;;;13.20;99.90;;;;;;5115274;27;19984;-74
2021/10/27 16:06:23;;;;;;;;;;;13.20;99.90;;;;;;5116072;28;19928;-74
2021/10/27 16:08:54;;;;;;;;;;;13.20;99.90;;;;;;5115994;28;19927;-72
2021/10/27 16:11:20;;;;;;;;;;;13.20;99.90;;;;;;5115986;28;19924;-70
2021/10/27 16:13:47;;;;;;;;;;;13.30;99.90;;;;;;5114918;27;20341;-71
2021/10/27 16:16:16;;;;;;;;;;;13.30;99.90;;;;;;5115585;28;19923;-70
2021/10/27 16:18:43;;;;;;;;;;;13.20;99.90;;;;;;5115390;28;19923;-72
2021/10/27 16:21:10;;;;;;;;;;;13.20;99.90;;;;;;5115621;28;20333;-74
2021/10/27 16:23:37;;;;;;;;;;;13.20;99.90;;;;;;5114944;28;19924;-70
2021/10/27 16:26:04;;;;;;;;;;;13.20;99.90;;;;;;5115603;28;19923;-72
2021/10/27 16:28:31;;;;;;;;;;;13.20;99.90;;;;;;5115610;28;20295;-71
2021/10/27 16:30:58;;;;;;;;;;;13.20;99.90;;;;;;5115275;28;19931;-73
2021/10/27 16:33:26;;;;;;;;;;;13.20;99.90;;;;;;5114516;28;20589;-71
2021/10/27 16:35:53;;;;;;;;;;;13.20;99.90;;;;;;5115502;28;20101;-72
2021/10/27 16:38:20;;;;;;;;;;;13.20;99.90;;;;;;5115221;28;20307;-70
2021/10/27 16:40:47;;;;;;;;;;;13.20;99.90;;;;;;5115353;28;19924;-71
2021/10/27 16:43:14;;;;;;;;;;;13.10;99.90;;;;;;5114779;28;19927;-70
2021/10/27 16:45:41;;;;;;;;;;;13.10;99.90;;;;;;5115094;28;19985;-70
2021/10/27 16:48:07;;;;;;;;;;;13.10;99.90;;;;;;5115479;28;19951;-71
2021/10/27 16:50:35;;;;;;;;;;;13.20;99.90;;;;;;5115233;28;19923;-72
2021/10/27 16:53:02;;;;;;;;;;;13.20;99.90;;;;;;5115045;28;19969;-70
2021/10/27 16:55:29;;;;;;;;;;;13.20;99.90;;;;;;5114500;28;20245;-70
2021/10/27 16:57:57;;;;;;;;;;;13.20;99.90;;;;;;5114919;28;19935;-70
2021/10/27 17:00:25;;;;;;;;;;;13.20;99.90;;;;;;5114501;28;19931;-70
2021/10/27 17:02:52;;;;;;;;;;;13.10;99.90;;;;;;5115273;28;19928;-72
2021/10/27 17:05:18;;;;;;;;;;;13.20;99.90;;;;;;5114217;28;19923;-72
2021/10/27 17:07:46;;;;;;;;;;;13.30;99.90;;;;;;5114656;28;19927;-72
2021/10/27 17:10:15;;;;;;;;;;;13.20;99.90;;;;;;5114459;28;19930;-70
2021/10/27 17:12:42;;;;;;;;;;;13.20;99.90;;;;;;5114519;28;20380;-70
2021/10/27 17:15:09;;;;;;;;;;;13.20;99.90;;;;;;5114247;28;19937;-72
2021/10/27 17:17:35;;;;;;;;;;;13.20;99.90;;;;;;5114624;28;19923;-71
2021/10/27 17:20:02;;;;;;;;;;;13.20;99.90;;;;;;5114419;28;19924;-71
2021/10/27 17:22:30;;;;;;;;;;;13.20;99.90;;;;;;5114390;28;20399;-71
2021/10/27 17:24:58;;;;;;;;;;;13.20;99.90;;;;;;5113752;28;19928;-72
2021/10/27 17:27:25;;;;;;;;;;;13.20;99.90;;;;;;5114027;28;20346;-72
2021/10/27 17:29:52;;;;;;;;;;;13.20;99.90;;;;;;5114464;28;19924;-72
2021/10/27 17:32:18;;;;;;;;;;;13.30;99.90;;;;;;5114374;28;19924;-73
2021/10/27 17:34:45;;;;;;;;;;;13.30;99.90;;;;;;5113694;28;20322;-71
2021/10/27 17:37:13;;;;;;;;;;;13.30;99.90;;;;;;5114336;28;19923;-76
2021/10/27 17:39:41;;;;;;;;;;;13.30;99.90;;;;;;5113920;28;19923;-71
2021/10/27 17:42:13;;;;;;;;;;;13.30;99.90;;;;;;5114188;28;19927;-70
2021/10/27 17:44:40;;;;;;;;;;;13.30;99.90;;;;;;5112501;28;19931;-71
2021/10/27 17:47:11;;;;;;;;;;;13.30;99.90;;;;;;5114302;28;20358;-71
2021/10/27 17:49:46;;;;;;;;;;;13.30;99.90;;;;;;5114422;28;19963;-70
2021/10/27 17:52:16;;;;;;;;;;;13.30;99.90;;;;;;5113665;28;20384;-69
2021/10/27 18:00:32;;;;;;;;;;;13.20;99.90;;;;;;5035350;28;20029;-72
2021/10/27 18:02:59;;;;;;;;;;;13.20;99.90;;;;;;5088374;28;20334;-76
2021/10/27 18:05:26;;;;;;;;;;;13.20;99.90;;;;;;5114383;28;20428;-71